Time;durP1;ratioP1;P1;durP2;ratioP2;P2;SDS_P1;SDS_P2;PMS_P1;PMS_P2;Temp;Humidity;BMP_temperature;BMP_pressure;BME280_temperature;BME280_humidity;BME280_pressure;Samples;Min_cycle;Max_cycle;Signal;HPM_P1;HPM_P2
2022/03/30 00:00:29;;;;;;;31.63;19.10;;;;;;;8.01;65.73;100606.41;5314155;28;20038;-71
2022/03/30 00:03:01;;;;;;;34.87;20.67;;;;;;;7.85;66.65;100612.53;5320371;28;20043;-73
2022/03/30 00:05:32;;;;;;;34.37;21.70;;;;;;;7.91;66.74;100607.34;5318530;27;20039;-75
2022/03/30 00:08:05;;;;;;;38.33;20.73;;;;;;;7.88;66.65;100607.34;5318056;28;20049;-74
2022/03/30 00:10:36;;;;;;;30.55;20.50;;;;;;;7.70;67.03;100603.09;5318155;28;20027;-74
2022/03/30 00:13:10;;;;;;;35.53;19.70;;;;;;;7.77;67.21;100607.38;5318173;28;20038;-75
2022/03/30 00:15:42;;;;;;;35.13;21.63;;;;;;;7.75;67.51;100610.88;5299889;28;20032;-74
2022/03/30 00:18:14;;;;;;;36.73;21.27;;;;;;;7.66;67.69;100606.56;5315917;28;20038;-75
2022/03/30 00:20:45;;;;;;;33.13;21.20;;;;;;;7.64;68.09;100613.50;5319905;28;20113;-74
2022/03/30 00:23:17;;;;;;;36.10;21.17;;;;;;;7.57;68.36;100606.63;5301510;28;20027;-72
2022/03/30 00:25:48;;;;;;;36.13;22.77;;;;;;;7.54;68.25;100609.22;5298234;28;20067;-73
2022/03/30 00:28:20;;;;;;;36.70;21.43;;;;;;;7.48;68.63;100604.91;5315737;28;20024;-75
2022/03/30 00:30:51;;;;;;;39.43;20.93;;;;;;;7.56;68.81;100612.66;5319679;28;20107;-73
2022/03/30 00:33:23;;;;;;;34.57;20.40;;;;;;;7.30;69.30;100603.22;5301598;28;20135;-74
2022/03/30 00:35:54;;;;;;;35.83;21.07;;;;;;;7.24;69.64;100601.47;5309748;28;20456;-75
2022/03/30 00:38:26;;;;;;;34.80;21.37;;;;;;;7.30;69.41;100603.22;5319521;28;20023;-74
2022/03/30 00:40:57;;;;;;;38.00;21.93;;;;;;;7.29;69.59;100589.41;5307514;28;20032;-76
2022/03/30 00:43:28;;;;;;;40.53;24.10;;;;;;;7.20;70.12;100585.97;5298075;28;20072;-75
2022/03/30 00:46:00;;;;;;;32.30;22.10;;;;;;;7.15;70.34;100588.56;5309054;28;20126;-74
2022/03/30 00:48:31;;;;;;;34.27;21.30;;;;;;;7.18;70.73;100583.38;5319334;28;20031;-74
2022/03/30 00:51:03;;;;;;;34.67;22.00;;;;;;;7.18;70.85;100588.56;5300851;28;20036;-75
2022/03/30 00:53:34;;;;;;;38.83;22.43;;;;;;;7.07;71.12;100591.16;5297761;28;20031;-74
2022/03/30 00:56:06;;;;;;;34.57;21.80;;;;;;;7.01;71.37;100593.75;5314964;28;20027;-74
2022/03/30 00:58:39;;;;;;;44.53;21.63;;;;;;;7.05;71.22;100590.31;5319175;28;20030;-72
2022/03/30 01:01:11;;;;;;;33.72;20.38;;;;;;;7.11;70.64;100594.59;5300655;28;20024;-75
2022/03/30 01:03:43;;;;;;;35.65;20.48;;;;;;;7.18;70.84;100598.03;5298669;28;20043;-71
2022/03/30 01:06:14;;;;;;;33.63;22.27;;;;;;;6.96;70.94;100582.53;5298034;28;20032;-74
2022/03/30 01:08:48;;;;;;;42.47;21.57;;;;;;;6.92;71.18;100586.88;5320774;27;20044;-74
2022/03/30 01:11:19;;;;;;;37.20;21.75;;;;;;;6.70;71.98;100585.16;5301250;28;20026;-75
2022/03/30 01:13:50;;;;;;;33.13;20.40;;;;;;;6.68;72.03;100581.69;5318272;28;20065;-75
2022/03/30 01:16:23;;;;;;;36.53;20.77;;;;;;;6.72;72.13;100568.72;5314429;28;20028;-73
2022/03/30 01:19:06;;;;;;;35.00;21.80;;;;;;;6.65;71.63;100566.13;5297001;28;20024;-74
2022/03/30 01:21:39;;;;;;;34.53;20.15;;;;;;;6.55;72.21;100571.34;5302384;28;20110;-76
2022/03/30 01:24:12;;;;;;;32.95;20.27;;;;;;;6.44;72.28;100572.19;5318803;28;20031;-75
2022/03/30 01:26:44;;;;;;;35.65;21.95;;;;;;;6.61;72.22;100567.03;5316879;28;20064;-75
2022/03/30 01:34:59;;;;;;;35.03;19.77;;;;;;;6.45;72.36;100554.06;5297343;28;20115;-75
2022/03/30 01:37:32;;;;;;;29.88;20.67;;;;;;;6.50;72.26;100557.50;5308299;28;20124;-73
2022/03/30 01:40:05;;;;;;;35.17;21.83;;;;;;;6.52;72.46;100562.69;5318357;28;20137;-74
2022/03/30 01:42:36;;;;;;;39.65;22.48;;;;;;;6.45;72.63;100545.44;5302223;28;20430;-75
2022/03/30 01:45:11;;;;;;;41.50;22.00;;;;;;;6.38;72.72;100557.53;5295901;28;20048;-74
2022/03/30 01:47:58;;;;;;;35.38;21.63;;;;;;;6.50;72.60;100551.47;5313071;28;20075;-75
2022/03/30 01:50:32;;;;;;;43.20;22.23;;;;;;;6.39;72.69;100554.03;5316535;28;20112;-76
2022/03/30 01:53:03;;;;;;;29.40;20.52;;;;;;;6.37;72.25;100558.38;5298077;28;20038;-76
2022/03/30 01:55:34;;;;;;;30.23;20.30;;;;;;;6.25;72.74;100555.75;5298348;28;20077;-76
2022/03/30 01:58:06;;;;;;;41.00;22.80;;;;;;;6.28;73.16;100558.34;5318040;28;20027;-71
2022/03/30 02:00:37;;;;;;;41.87;21.40;;;;;;;6.22;73.26;100548.88;5306201;28;20028;-74
2022/03/30 02:03:09;;;;;;;34.93;22.03;;;;;;;6.24;73.15;100547.13;5296992;28;20032;-73
2022/03/30 02:05:41;;;;;;;33.60;20.20;;;;;;;6.19;73.00;100547.13;5307934;28;20028;-74
2022/03/30 02:08:12;;;;;;;35.03;19.00;;;;;;;6.05;73.19;100542.81;5317788;28;20035;-75
2022/03/30 02:10:43;;;;;;;33.33;19.97;;;;;;;6.12;73.22;100531.63;5306362;28;20031;-76
2022/03/30 02:13:15;;;;;;;37.03;23.27;;;;;;;6.00;74.36;100528.13;5297216;28;20036;-74
2022/03/30 02:15:46;;;;;;;45.37;21.03;;;;;;;6.14;74.03;100535.06;5307887;28;20027;-72
2022/03/30 02:18:18;;;;;;;34.53;19.50;;;;;;;6.15;73.41;100534.19;5317716;28;20035;-73
2022/03/30 02:20:50;;;;;;;40.77;21.27;;;;;;;5.99;73.71;100533.31;5306564;28;20036;-74
2022/03/30 02:23:21;;;;;;;36.23;21.60;;;;;;;5.89;74.40;100528.94;5295866;28;20023;-74
2022/03/30 02:25:52;;;;;;;34.93;21.57;;;;;;;5.87;74.35;100523.75;5317955;28;20019;-72
2022/03/30 02:28:24;;;;;;;44.97;22.73;;;;;;;5.88;74.33;100524.63;5317304;28;20016;-72
2022/03/30 02:30:55;;;;;;;34.20;21.57;;;;;;;5.69;74.71;100524.56;5297798;28;20074;-74
2022/03/30 02:33:27;;;;;;;29.70;20.63;;;;;;;5.77;74.67;100512.53;5311812;28;20089;-72
2022/03/30 02:35:58;;;;;;;34.67;21.47;;;;;;;5.76;75.30;100509.94;5320333;28;20028;-74
2022/03/30 02:38:30;;;;;;;35.70;23.10;;;;;;;5.64;75.20;100495.25;5309587;27;20028;-74
2022/03/30 02:41:03;;;;;;;39.40;21.05;;;;;;;5.54;75.30;100503.81;5300845;28;20483;-75
2022/03/30 02:43:35;;;;;;;34.72;20.15;;;;;;;5.58;75.47;100495.22;5312103;28;20077;-73
2022/03/30 02:46:06;;;;;;;35.55;22.80;;;;;;;5.50;75.63;100495.19;5321729;28;20073;-73
2022/03/30 02:48:38;;;;;;;37.07;23.33;;;;;;;5.45;75.96;100497.75;5309272;28;20027;-74
2022/03/30 02:51:10;;;;;;;37.43;21.50;;;;;;;5.41;75.57;100490.00;5300454;28;20032;-76
2022/03/30 02:53:41;;;;;;;39.57;23.00;;;;;;;5.37;76.04;100491.72;5300500;28;20491;-74
2022/03/30 02:56:13;;;;;;;37.93;22.20;;;;;;;5.30;76.72;100487.38;5300209;28;20085;-74
2022/03/30 02:58:44;;;;;;;37.57;22.57;;;;;;;5.25;76.66;100489.09;5311452;28;20660;-73
2022/03/30 03:01:15;;;;;;;38.73;22.13;;;;;;;5.19;76.93;100491.66;5321440;28;20746;-74
2022/03/30 03:03:47;;;;;;;40.80;23.10;;;;;;;5.35;76.90;100482.25;5309604;28;20483;-76
2022/03/30 03:06:18;;;;;;;38.97;22.07;;;;;;;5.15;76.37;100493.34;5300204;28;20036;-73
2022/03/30 03:08:50;;;;;;;42.23;22.13;;;;;;;5.18;76.48;100487.31;5315339;28;20030;-74
2022/03/30 03:11:21;;;;;;;36.77;19.67;;;;;;;5.19;76.43;100481.31;5321285;28;20031;-75
2022/03/30 03:13:52;;;;;;;40.33;20.80;;;;;;;5.16;76.62;100481.28;5305589;28;20059;-74
2022/03/30 03:16:24;;;;;;;33.00;20.50;;;;;;;5.26;76.54;100483.06;5299964;28;20032;-76
2022/03/30 03:18:55;;;;;;;38.00;21.80;;;;;;;5.25;76.68;100489.94;5315383;28;20063;-74
2022/03/30 03:21:26;;;;;;;39.27;21.80;;;;;;;5.31;76.57;100478.75;5321263;27;20423;-74
2022/03/30 03:23:58;;;;;;;33.80;21.17;;;;;;;5.26;77.02;100477.88;5305585;28;20059;-75
2022/03/30 03:26:29;;;;;;;58.20;29.87;;;;;;;5.18;76.90;100469.25;5297603;28;20129;-75
2022/03/30 03:29:02;;;;;;;43.60;23.47;;;;;;;5.28;76.56;100471.88;5314506;28;20542;-73
2022/03/30 03:31:33;;;;;;;39.20;22.15;;;;;;;5.08;77.11;100470.91;5320875;28;20024;-74
2022/03/30 03:34:04;;;;;;;36.27;23.03;;;;;;;5.08;77.45;100468.34;5319202;28;20532;-74
2022/03/30 03:36:36;;;;;;;37.80;22.13;;;;;;;4.99;77.40;100464.00;5320343;28;20020;-76
2022/03/30 03:39:07;;;;;;;35.57;22.10;;;;;;;4.93;77.70;100461.38;5306142;28;20031;-74
2022/03/30 03:41:39;;;;;;;42.90;22.63;;;;;;;4.88;77.82;100465.66;5299677;28;20024;-74
2022/03/30 03:44:10;;;;;;;38.53;21.90;;;;;;;4.91;77.94;100466.53;5312834;28;20047;-73
2022/03/30 03:46:41;;;;;;;38.57;22.77;;;;;;;4.89;78.03;100462.22;5320883;28;20031;-75
2022/03/30 03:49:13;;;;;;;37.00;22.70;;;;;;;4.89;77.98;100459.63;5320185;28;20042;-72
2022/03/30 03:51:44;;;;;;;38.90;23.63;;;;;;;4.75;78.25;100454.41;5320297;27;20475;-72
2022/03/30 03:54:15;;;;;;;51.80;34.10;;;;;;;4.70;78.48;100456.06;5305849;27;20028;-75
2022/03/30 03:56:47;;;;;;;44.93;24.70;;;;;;;4.69;78.60;100459.53;5299536;28;20035;-74
2022/03/30 03:59:19;;;;;;;36.80;23.48;;;;;;;4.61;79.00;100461.19;5313006;28;20034;-75
2022/03/30 04:01:50;;;;;;;36.70;24.27;;;;;;;4.53;79.23;100456.84;5320358;28;20038;-74
2022/03/30 04:04:21;;;;;;;37.90;24.27;;;;;;;4.38;79.70;100449.84;5306133;28;20035;-75
2022/03/30 04:06:53;;;;;;;40.57;24.50;;;;;;;4.39;79.81;100458.44;5299135;28;20478;-75
2022/03/30 04:09:24;;;;;;;49.87;25.97;;;;;;;4.32;79.66;100447.22;5312498;28;20040;-71
2022/03/30 04:11:55;;;;;;;43.70;23.63;;;;;;;4.25;79.86;100445.47;5308460;28;20085;-73
2022/03/30 04:14:27;;;;;;;35.33;22.37;;;;;;;4.11;80.27;100442.78;5320543;28;20028;-74
2022/03/30 04:16:58;;;;;;;42.13;22.33;;;;;;;4.00;80.48;100445.25;5313876;28;20423;-74
2022/03/30 04:19:30;;;;;;;35.90;22.50;;;;;;;4.08;80.89;100442.75;5298740;28;20028;-73
2022/03/30 04:22:01;;;;;;;44.93;22.93;;;;;;;3.98;81.19;100440.94;5305020;28;20043;-74
2022/03/30 04:24:32;;;;;;;38.97;22.17;;;;;;;3.91;81.76;100432.31;5320779;28;20227;-77
2022/03/30 04:27:04;;;;;;;39.53;22.30;;;;;;;3.92;82.09;100433.16;5313674;28;20122;-74
2022/03/30 04:29:35;;;;;;;36.20;21.77;;;;;;;3.81;82.22;100436.47;5300146;28;20032;-75
2022/03/30 04:32:08;;;;;;;39.93;22.97;;;;;;;3.88;82.15;100442.59;5307003;28;20031;-73
2022/03/30 04:34:39;;;;;;;38.80;23.13;;;;;;;3.82;82.30;100439.94;5323308;28;20645;-75
2022/03/30 04:37:10;;;;;;;39.33;23.50;;;;;;;3.85;82.41;100427.09;5308474;28;20154;-76
2022/03/30 04:39:42;;;;;;;42.53;22.70;;;;;;;3.77;82.29;100428.72;5301193;28;20050;-74
2022/03/30 04:42:14;;;;;;;33.53;23.43;;;;;;;3.81;82.36;100433.91;5314130;28;20042;-76
2022/03/30 04:44:45;;;;;;;43.50;22.60;;;;;;;3.77;82.48;100441.63;5314440;28;20058;-73
2022/03/30 04:47:16;;;;;;;37.63;24.23;;;;;;;3.67;82.79;100444.94;5298419;28;20103;-76
2022/03/30 04:49:48;;;;;;;37.77;23.40;;;;;;;3.56;82.94;100445.72;5302852;28;20039;-76
2022/03/30 04:52:19;;;;;;;39.27;23.57;;;;;;;3.50;83.31;100445.63;5318945;28;20035;-76
2022/03/30 04:54:50;;;;;;;45.17;23.87;;;;;;;3.41;83.33;100440.38;5318247;28;20348;-76
2022/03/30 04:57:22;;;;;;;41.80;23.67;;;;;;;3.38;84.01;100445.50;5319273;28;20024;-76
2022/03/30 04:59:53;;;;;;;48.57;24.00;;;;;;;3.38;83.89;100448.06;5319097;28;20051;-77
2022/03/30 05:02:26;;;;;;;43.53;25.37;;;;;;;3.34;84.39;100449.75;5319017;28;20035;-77
2022/03/30 05:04:58;;;;;;;45.60;25.17;;;;;;;3.29;84.13;100451.41;5318779;28;20031;-73
2022/03/30 05:07:29;;;;;;;48.97;26.17;;;;;;;3.28;84.39;100454.84;5319093;28;20364;-77
2022/03/30 05:10:00;;;;;;;43.37;24.03;;;;;;;3.13;84.59;100445.22;5318545;28;20102;-73
2022/03/30 05:12:32;;;;;;;47.17;25.13;;;;;;;3.05;84.97;100441.69;5318785;28;20059;-76
2022/03/30 05:15:04;;;;;;;46.53;26.33;;;;;;;3.03;85.38;100445.97;5318432;28;20039;-75
2022/03/30 05:17:38;;;;;;;47.33;23.73;;;;;;;2.99;85.65;100445.03;5318694;28;20024;-75
2022/03/30 05:20:13;;;;;;;46.95;25.88;;;;;;;3.01;85.68;100447.63;5318410;28;20107;-73
2022/03/30 05:22:44;;;;;;;50.58;27.60;;;;;;;2.90;86.18;100438.06;5318477;28;20403;-76
2022/03/30 05:25:15;;;;;;;43.87;25.73;;;;;;;2.88;85.85;100434.63;5317755;28;20020;-73
2022/03/30 05:27:47;;;;;;;52.47;28.63;;;;;;;2.92;86.20;100438.94;5317294;28;20032;-75
2022/03/30 05:30:19;;;;;;;39.23;26.27;;;;;;;2.97;86.31;100433.00;5318362;28;20035;-73
2022/03/30 05:32:50;;;;;;;50.13;28.53;;;;;;;2.95;86.32;100434.69;5318011;28;20097;-75
2022/03/30 05:35:21;;;;;;;49.17;26.50;;;;;;;2.92;86.01;100432.94;5318249;28;20034;-73
2022/03/30 05:37:53;;;;;;;49.13;25.97;;;;;;;2.89;86.53;100433.75;5318353;28;20130;-75
2022/03/30 05:40:24;;;;;;;45.03;26.40;;;;;;;2.77;86.91;100437.88;5317723;28;20050;-76
2022/03/30 05:42:56;;;;;;;40.13;25.33;;;;;;;2.78;87.07;100430.19;5317572;28;20038;-73
2022/03/30 05:45:27;;;;;;;46.97;26.17;;;;;;;2.80;86.89;100431.09;5318433;28;20031;-76
2022/03/30 05:47:59;;;;;;;47.93;25.67;;;;;;;2.84;87.33;100425.13;5317741;28;20471;-73
2022/03/30 05:50:31;;;;;;;48.78;27.45;;;;;;;2.91;87.26;100429.50;5318084;28;20034;-75
2022/03/30 05:53:02;;;;;;;50.30;25.33;;;;;;;2.91;86.81;100429.50;5317708;28;20024;-74
2022/03/30 05:55:34;;;;;;;45.50;25.67;;;;;;;3.03;86.88;100433.09;5317721;28;20154;-75
2022/03/30 05:58:05;;;;;;;47.40;25.40;;;;;;;3.00;86.69;100427.91;5317921;28;20038;-76
2022/03/30 06:00:37;;;;;;;55.93;27.07;;;;;;;2.99;86.84;100429.59;5318172;28;20051;-76
2022/03/30 06:03:10;;;;;;;44.63;26.50;;;;;;;3.08;86.69;100436.56;5318036;28;20031;-76
2022/03/30 06:05:41;;;;;;;45.92;27.52;;;;;;;3.08;86.81;100434.00;5318675;28;20457;-75
2022/03/30 06:08:12;;;;;;;49.50;24.80;;;;;;;3.10;86.17;100440.88;5322396;28;20103;-75
2022/03/30 06:10:44;;;;;;;44.40;26.03;;;;;;;3.12;86.77;100446.06;5320433;28;20042;-76
2022/03/30 06:13:15;;;;;;;42.33;25.57;;;;;;;3.22;86.55;100447.91;5322362;28;20027;-77
2022/03/30 06:15:46;;;;;;;44.27;25.63;;;;;;;3.27;86.48;100445.41;5322538;28;20582;-77
2022/03/30 06:18:18;;;;;;;43.17;25.70;;;;;;;3.29;86.22;100451.41;5321912;28;20098;-75
2022/03/30 06:20:50;;;;;;;49.97;25.83;;;;;;;3.35;85.76;100455.75;5322119;28;20094;-76
2022/03/30 06:23:21;;;;;;;48.92;25.42;;;;;;;3.39;86.00;100445.50;5321430;28;20098;-74
2022/03/30 06:25:54;;;;;;;47.90;26.27;;;;;;;3.36;85.75;100452.34;5322084;28;20020;-76
2022/03/30 06:28:27;;;;;;;41.25;24.75;;;;;;;3.46;85.86;100454.16;5322313;28;20362;-76
2022/03/30 06:30:58;;;;;;;44.30;25.27;;;;;;;3.43;85.45;100451.56;5321948;28;20026;-76
2022/03/30 06:33:30;;;;;;;39.83;24.80;;;;;;;3.59;85.67;100456.06;5321712;28;20036;-77
2022/03/30 06:36:01;;;;;;;42.47;23.87;;;;;;;3.65;85.07;100456.13;5322155;28;20028;-76
2022/03/30 06:38:33;;;;;;;34.97;23.37;;;;;;;3.72;84.72;100449.31;5321659;28;20015;-76
2022/03/30 06:41:07;;;;;;;48.83;26.57;;;;;;;3.71;84.71;100450.16;5321570;28;20032;-78
2022/03/30 06:43:42;;;;;;;44.83;26.15;;;;;;;3.87;84.79;100450.31;5321051;28;20400;-77
2022/03/30 06:46:14;;;;;;;46.03;25.60;;;;;;;3.92;84.02;100441.75;5321584;28;20027;-74
2022/03/30 06:48:46;;;;;;;43.83;24.67;;;;;;;4.07;83.89;100440.16;5321747;28;20020;-75
2022/03/30 06:51:17;;;;;;;41.67;23.40;;;;;;;4.15;83.18;100441.97;5321561;28;20459;-75
2022/03/30 06:53:48;;;;;;;40.37;23.90;;;;;;;4.17;83.17;100439.34;5321512;28;20100;-77
2022/03/30 06:56:20;;;;;;;47.37;23.13;;;;;;;4.18;83.20;100441.09;5321033;28;20077;-76
2022/03/30 06:58:52;;;;;;;36.67;24.13;;;;;;;4.33;82.97;100441.22;5320944;28;20102;-77
2022/03/30 07:01:23;;;;;;;42.17;24.63;;;;;;;4.44;82.27;100445.59;5321377;28;20055;-77
2022/03/30 07:03:55;;;;;;;38.43;22.83;;;;;;;4.59;81.75;100435.38;5321081;28;20028;-77
2022/03/30 07:06:27;;;;;;;39.50;22.88;;;;;;;4.66;80.87;100423.34;5320712;28;20182;-77
2022/03/30 07:11:48;;;;;;;37.00;21.70;;;;;;;5.05;79.73;100432.16;5319923;28;20055;-75
2022/03/30 07:14:19;;;;;;;38.87;22.33;;;;;;;5.11;78.83;100440.78;5319005;28;20383;-76
2022/03/30 07:16:50;;;;;;;35.10;22.23;;;;;;;5.31;78.62;100442.56;5320624;28;20038;-77
2022/03/30 07:19:22;;;;;;;41.00;22.57;;;;;;;5.47;78.17;100446.06;5320338;28;20050;-76
2022/03/30 07:21:53;;;;;;;34.27;21.30;;;;;;;5.80;77.39;100431.50;5321090;28;20035;-76
2022/03/30 07:24:25;;;;;;;37.90;23.03;;;;;;;6.18;76.78;100434.13;5320952;28;20028;-77
2022/03/30 07:26:56;;;;;;;42.07;23.07;;;;;;;6.45;74.95;100432.34;5321722;28;20027;-77
2022/03/30 07:29:27;;;;;;;40.40;23.37;;;;;;;6.67;73.51;100434.94;5320577;28;20146;-76
2022/03/30 07:31:59;;;;;;;35.67;21.23;;;;;;;6.98;72.29;100434.81;5318951;28;20114;-75
2022/03/30 07:34:30;;;;;;;35.10;20.90;;;;;;;7.16;71.12;100439.91;5320632;28;20051;-76
2022/03/30 07:37:03;;;;;;;31.17;19.17;;;;;;;7.34;70.25;100446.78;5320738;28;20051;-75
2022/03/30 07:39:34;;;;;;;32.05;19.70;;;;;;;7.57;70.04;100443.19;5320484;28;20088;-76
2022/03/30 07:42:06;;;;;;;31.93;20.30;;;;;;;7.70;68.36;100434.47;5320270;28;20092;-74
2022/03/30 07:44:37;;;;;;;28.70;19.70;;;;;;;7.87;68.38;100431.72;5320143;28;20055;-77
2022/03/30 07:47:09;;;;;;;36.73;20.67;;;;;;;8.01;67.58;100429.03;5319319;28;20024;-78
2022/03/30 07:49:40;;;;;;;31.23;18.73;;;;;;;8.17;67.50;100432.38;5319418;28;20319;-75
2022/03/30 07:52:12;;;;;;;36.50;20.57;;;;;;;8.37;66.00;100427.88;5320512;27;20081;-76
2022/03/30 07:54:44;;;;;;;34.80;19.50;;;;;;;8.70;65.38;100428.41;5319961;28;20031;-74
2022/03/30 07:57:19;;;;;;;30.13;18.13;;;;;;;8.76;64.20;100433.56;5320446;28;20274;-76
2022/03/30 07:59:51;;;;;;;29.38;17.63;;;;;;;8.78;63.78;100428.34;5319988;28;20019;-75
2022/03/30 08:02:23;;;;;;;30.37;18.60;;;;;;;8.76;63.51;100430.97;5319966;28;20050;-76
2022/03/30 08:04:56;;;;;;;35.33;19.42;;;;;;;8.53;64.27;100432.94;5320359;28;20031;-77
2022/03/30 08:07:29;;;;;;;33.83;19.92;;;;;;;8.23;65.05;100429.72;5320565;28;20106;-78
2022/03/30 08:10:01;;;;;;;31.48;19.17;;;;;;;8.13;65.72;100433.25;5320298;28;20036;-78
2022/03/30 08:12:32;;;;;;;31.13;18.37;;;;;;;8.04;66.34;100439.41;5320306;28;20716;-76
2022/03/30 08:15:04;;;;;;;35.50;21.57;;;;;;;7.89;66.62;100435.19;5320420;28;20074;-75
2022/03/30 08:17:36;;;;;;;29.83;18.73;;;;;;;8.10;66.53;100435.88;5319784;27;20026;-77
2022/03/30 08:20:08;;;;;;;33.10;21.00;;;;;;;8.11;65.81;100437.63;5319789;28;20019;-76
2022/03/30 08:22:40;;;;;;;36.78;19.02;;;;;;;8.34;65.60;100435.69;5320036;28;20080;-76
2022/03/30 08:25:12;;;;;;;30.13;18.33;;;;;;;8.53;65.11;100438.13;5319945;28;20024;-75
2022/03/30 08:27:44;;;;;;;27.60;16.77;;;;;;;8.65;64.01;100445.81;5319694;28;20493;-75
2022/03/30 08:30:15;;;;;;;27.63;17.33;;;;;;;8.67;63.82;100443.19;5319463;28;20467;-76
2022/03/30 08:32:47;;;;;;;35.30;19.33;;;;;;;8.68;63.61;100444.94;5319024;28;20031;-77
2022/03/30 08:35:21;;;;;;;27.45;17.95;;;;;;;8.72;63.71;100434.44;5318510;28;20051;-76
2022/03/30 08:37:53;;;;;;;29.05;18.67;;;;;;;8.67;63.58;100428.44;5319349;28;20028;-76
2022/03/30 08:40:25;;;;;;;28.88;17.83;;;;;;;8.94;63.44;100435.09;5319275;28;20066;-76
2022/03/30 08:42:57;;;;;;;28.60;17.00;;;;;;;9.06;62.84;100436.66;5318595;28;20089;-75
2022/03/30 08:45:28;;;;;;;31.73;17.93;;;;;;;9.17;62.35;100423.53;5318635;28;20027;-75
2022/03/30 08:48:01;;;;;;;28.07;16.97;;;;;;;9.28;62.14;100423.41;5318773;28;20028;-75
2022/03/30 08:50:32;;;;;;;;;;;;;;;9.55;62.38;100419.56;5319687;28;20027;-75
2022/03/30 08:53:06;;;;;;;25.88;15.57;;;;;;;9.65;60.99;100423.75;5318627;28;19920;-74
2022/03/30 08:55:38;;;;;;;25.55;15.68;;;;;;;9.70;60.26;100413.28;5318890;28;20028;-74
2022/03/30 08:58:09;;;;;;;29.57;16.10;;;;;;;9.86;60.10;100414.75;5318385;28;20031;-75
2022/03/30 09:00:41;;;;;;;26.90;16.70;;;;;;;9.92;59.71;100407.72;5318919;28;20080;-76
2022/03/30 09:03:15;;;;;;;25.27;15.97;;;;;;;10.10;59.53;100411.78;5318148;28;20107;-74
2022/03/30 09:05:46;;;;;;;22.42;14.48;;;;;;;10.61;57.83;100416.09;5318698;28;20036;-75
2022/03/30 09:08:21;;;;;;;21.23;15.20;;;;;;;11.22;57.21;100420.13;5318504;28;20028;-75
2022/03/30 09:10:55;;;;;;;24.77;15.13;;;;;;;11.46;54.78;100416.13;5318443;28;20088;-75
2022/03/30 09:13:26;;;;;;;23.73;14.95;;;;;;;11.55;54.42;100415.03;5318073;28;20032;-74
2022/03/30 09:15:57;;;;;;;27.93;15.70;;;;;;;12.07;53.70;100409.50;5318640;27;20591;-76
2022/03/30 09:18:29;;;;;;;21.73;16.03;;;;;;;12.26;52.74;100415.13;5318557;27;20102;-75
2022/03/30 09:21:00;;;;;;;20.90;13.13;;;;;;;12.68;50.90;100409.63;5317866;28;20055;-75
2022/03/30 09:23:32;;;;;;;26.53;14.70;;;;;;;13.13;49.91;100407.47;5318066;28;20020;-76
2022/03/30 09:26:04;;;;;;;24.48;14.07;;;;;;;13.25;49.25;100405.38;5317915;28;20028;-77
2022/03/30 09:28:36;;;;;;;42.45;16.85;;;;;;;13.74;49.25;100403.91;5317365;28;20375;-76
2022/03/30 09:31:07;;;;;;;35.40;16.23;;;;;;;13.52;48.21;100400.25;5318120;28;20102;-75
2022/03/30 09:33:41;;;;;;;24.77;14.83;;;;;;;13.56;47.73;100396.66;5317454;28;20067;-75
2022/03/30 09:36:36;;;;;;;24.83;15.43;;;;;;;14.09;49.52;100391.41;5318485;28;20067;-76
2022/03/30 09:39:26;;;;;;;22.08;14.43;;;;;;;14.14;46.84;100396.50;5318258;28;20016;-75
2022/03/30 09:41:59;;;;;;;73.90;19.85;;;;;;;14.44;45.80;100389.38;5317107;28;20069;-75
2022/03/30 09:44:45;;;;;;;31.85;16.23;;;;;;;14.12;47.35;100380.84;5318033;28;20475;-77
2022/03/30 09:47:17;;;;;;;22.80;14.40;;;;;;;14.36;46.79;100381.75;5318077;28;20044;-75
2022/03/30 09:49:53;;;;;;;25.75;14.98;;;;;;;14.67;45.48;100383.31;5317854;28;20454;-74
2022/03/30 09:52:33;;;;;;;23.58;15.23;;;;;;;14.58;46.31;100384.44;5317609;28;20092;-75
2022/03/30 09:55:06;;;;;;;20.80;14.82;;;;;;;14.30;45.56;100374.09;5318220;28;20047;-75
2022/03/30 09:57:40;;;;;;;24.80;16.00;;;;;;;13.70;46.09;100373.50;5318238;28;20343;-74
2022/03/30 10:00:14;;;;;;;22.05;14.30;;;;;;;13.91;46.14;100376.28;5317836;28;20030;-75
2022/03/30 10:02:54;;;;;;;24.38;15.48;;;;;;;13.42;47.32;100376.97;5317817;28;20751;-76
2022/03/30 10:05:25;;;;;;;23.60;15.68;;;;;;;14.00;46.62;100370.75;5317513;28;20069;-76
2022/03/30 10:07:58;;;;;;;30.10;16.30;;;;;;;14.77;44.32;100375.97;5317974;28;20024;-74
2022/03/30 10:10:29;;;;;;;22.85;15.73;;;;;;;15.37;42.12;100364.94;5318424;28;20034;-76
2022/03/30 10:13:01;;;;;;;26.90;15.37;;;;;;;15.66;42.87;100363.78;5317592;28;20471;-76
2022/03/30 10:15:33;;;;;;;21.83;15.95;;;;;;;16.26;40.12;100357.81;5316353;28;20032;-75
2022/03/30 10:18:06;;;;;;;25.80;15.23;;;;;;;16.90;39.45;100362.03;5318184;28;20031;-76
2022/03/30 10:20:37;;;;;;;;;;;;;;;18.42;39.94;100356.41;5318334;28;20124;-76
2022/03/30 10:23:18;;;;;;;22.40;15.25;;;;;;;18.19;38.23;100357.56;5317554;28;19958;-75
2022/03/30 10:26:13;;;;;;;21.35;15.10;;;;;;;18.40;37.23;100358.25;5317677;28;20048;-75
2022/03/30 10:28:58;;;;;;;22.90;14.45;;;;;;;18.98;36.44;100349.03;5317527;28;20031;-75
2022/03/30 10:31:30;;;;;;;24.15;15.40;;;;;;;19.29;33.57;100342.06;5317405;28;20039;-75
2022/03/30 10:34:27;;;;;;;27.85;16.42;;;;;;;19.71;34.07;100350.28;5317681;28;20031;-74
2022/03/30 10:37:05;;;;;;;25.45;15.95;;;;;;;18.73;34.75;100341.56;5317953;28;20039;-75
2022/03/30 10:40:04;;;;;;;19.73;14.88;;;;;;;19.92;34.64;100351.69;5317658;28;20496;-76
2022/03/30 10:43:20;;;;;;;21.27;14.52;;;;;;;20.90;31.86;100346.69;5317313;28;20115;-75
2022/03/30 10:46:01;;;;;;;23.40;14.27;;;;;;;19.89;33.03;100336.00;5317276;28;20036;-76
2022/03/30 10:48:33;;;;;;;21.45;13.95;;;;;;;20.23;32.13;100326.03;5317701;28;20475;-76
2022/03/30 10:51:07;;;;;;;23.90;15.82;;;;;;;20.00;32.20;100333.56;5316809;28;20039;-75
2022/03/30 10:53:51;;;;;;;21.08;15.88;;;;;;;19.51;33.69;100323.16;5320236;28;20038;-75
2022/03/30 10:56:24;;;;;;;20.30;15.57;;;;;;;19.83;32.64;100317.84;5320907;27;20428;-75
2022/03/30 10:58:56;;;;;;;19.42;13.80;;;;;;;20.46;30.23;100323.78;5321077;28;20398;-75
2022/03/30 11:01:27;;;;;;;19.70;14.97;;;;;;;20.13;30.91;100319.59;5321274;28;20035;-74
2022/03/30 11:04:02;;;;;;;26.10;15.18;;;;;;;20.21;30.93;100310.25;5321072;28;20057;-75
2022/03/30 11:06:39;;;;;;;22.48;15.05;;;;;;;18.68;32.68;100312.75;5320765;27;20490;-76
2022/03/30 11:09:28;;;;;;;20.08;14.85;;;;;;;18.35;34.94;100310.13;5319067;28;20273;-75
2022/03/30 11:12:02;;;;;;;21.17;14.00;;;;;;;18.15;34.06;100308.56;5320756;27;20038;-76
2022/03/30 11:14:36;;;;;;;18.60;13.80;;;;;;;19.17;32.83;100295.19;5320548;28;20031;-76
2022/03/30 11:17:12;;;;;;;22.42;14.60;;;;;;;19.92;31.91;100298.78;5320447;28;20050;-75
2022/03/30 11:19:47;;;;;;;25.83;15.68;;;;;;;20.47;30.79;100294.56;5320809;28;20038;-75
2022/03/30 11:22:29;;;;;;;23.40;15.07;;;;;;;20.62;30.01;100282.16;5320818;28;20085;-76
2022/03/30 11:25:17;;;;;;;18.83;13.82;;;;;;;22.47;29.15;100285.88;5319140;28;20039;-74
2022/03/30 11:27:58;;;;;;;22.17;14.88;;;;;;;22.98;28.06;100286.72;5320671;28;20024;-76
2022/03/30 11:30:31;;;;;;;19.17;14.85;;;;;;;21.77;28.66;100276.50;5320542;28;20028;-75
2022/03/30 11:33:23;;;;;;;20.40;14.82;;;;;;;23.04;27.79;100268.53;5320609;28;20027;-76
2022/03/30 11:35:57;;;;;;;18.67;13.98;;;;;;;22.48;28.22;100265.50;5320339;28;20070;-75
2022/03/30 11:38:39;;;;;;;22.90;14.07;;;;;;;22.00;29.34;100259.00;5319908;28;20024;-75
2022/03/30 11:41:11;;;;;;;23.55;14.57;;;;;;;23.09;27.17;100253.09;5320175;28;20115;-75
2022/03/30 11:46:33;;;;;;;18.02;14.23;;;;;;;23.98;25.60;100258.84;5320318;28;20399;-75
2022/03/30 11:49:05;;;;;;;29.58;16.15;;;;;;;23.47;25.62;100252.06;5320293;28;20036;-76
2022/03/30 11:51:37;;;;;;;18.98;14.65;;;;;;;23.57;26.00;100246.88;5320135;28;20031;-76
2022/03/30 11:54:17;;;;;;;21.50;14.37;;;;;;;23.22;26.25;100249.53;5319596;27;20024;-76